Observation data for Paducah on 11/22/2019      Previous  Date       Current Mesonet Observations  Soil Data  Daily Summary Page  Observations in Plain Language
KPAD 220600Z 35007KT 05/04 A3014 RMK A01 T00510043  RH  097%=      5-min Rain = 0
KPAD 220605Z 34009KT 05/04 A3015 RMK A01 T00520044  RH  097%=      5-min Rain = 0.01
KPAD 220610Z 35008KT 05/04 A3014 RMK A01 T00520044  RH  097%=      5-min Rain = 0
KPAD 220615Z 36010KT 05/04 A3014 RMK A01 T00520044  RH  097%=      5-min Rain = 0
KPAD 220620Z 02010KT 05/04 A3012 RMK A01 T00510044  RH  097%=      5-min Rain = 0.01
KPAD 220625Z 02011G16KT 05/04 A3011 RMK A01 T00500044  RH  097%=      5-min Rain = 0
KPAD 220630Z 03012KT 05/04 A3009 RMK A01 T00500043  RH  097%=      5-min Rain = 0
KPAD 220635Z 01011KT 05/04 A301 RMK A01 T00490043  RH  097%=      5-min Rain = 0.01
KPAD 220640Z 01010KT 05/04 A301 RMK A01 T00490043  RH  097%=      5-min Rain = 0
KPAD 220645Z 00009KT 05/04 A3011 RMK A01 T00500043  RH  098%=      5-min Rain = 0
KPAD 220650Z 36009KT 05/04 A3012 RMK A01 T00500044  RH  098%=      5-min Rain = 0
KPAD 220655Z 35008KT 05/04 A3012 RMK A01 T00500044  RH  098%=      5-min Rain = 0
KPAD 220700Z 00009KT 05/04 A3012 RMK A01 T00500044  RH  098%=      5-min Rain = 0
KPAD 220705Z 01006KT 05/04 A3012 RMK A01 T00500043  RH  098%=      5-min Rain = 0
KPAD 220710Z 01006KT 05/04 A3012 RMK A01 T00490043  RH  098%=      5-min Rain = 0
KPAD 220715Z 35006KT 05/04 A3013 RMK A01 T00490043  RH  098%=      5-min Rain = 0
KPAD 220720Z 35007KT 05/04 A3013 RMK A01 T00500043  RH  098%=      5-min Rain = 0
KPAD 220725Z 36008KT 05/04 A3012 RMK A01 T00490043  RH  098%=      5-min Rain = 0
KPAD 220730Z 36010KT 05/04 A3012 RMK A01 T00490042  RH  098%=      5-min Rain = 0
KPAD 220735Z 36008KT 05/04 A3012 RMK A01 T00480042  RH  098%=      5-min Rain = 0
KPAD 220740Z 00009KT 05/04 A3013 RMK A01 T00480041  RH  098%=      5-min Rain = 0
KPAD 220745Z 02008KT 05/04 A3013 RMK A01 T00470041  RH  098%=      5-min Rain = 0
KPAD 220750Z 01009KT 05/04 A3012 RMK A01 T00470041  RH  098%=      5-min Rain = 0
KPAD 220755Z 00011KT 05/04 A3011 RMK A01 T00470041  RH  098%=      5-min Rain = 0
KPAD 220800Z 01010KT 05/04 A3011 RMK A01 T00470041  RH  098%=      5-min Rain = 0
KPAD 220805Z 01010KT 05/04 A3011 RMK A01 T00470040  RH  098%=      5-min Rain = 0
KPAD 220810Z 01010KT 05/04 A301 RMK A01 T00470040  RH  097%=      5-min Rain = 0
KPAD 220815Z 00009KT 05/04 A3011 RMK A01 T00460040  RH  097%=      5-min Rain = 0
KPAD 220820Z 01008KT 05/04 A3011 RMK A01 T00460040  RH  097%=      5-min Rain = 0
KPAD 220825Z 35007KT 05/04 A3013 RMK A01 T00460039  RH  098%=      5-min Rain = 0
KPAD 220830Z 00009KT 05/04 A3012 RMK A01 T00460040  RH  097%=      5-min Rain = 0.01
KPAD 220835Z 01008KT 05/04 A3012 RMK A01 T00450039  RH  097%=      5-min Rain = 0
KPAD 220840Z 01007KT 05/04 A3013 RMK A01 T00450039  RH  097%=      5-min Rain = 0
KPAD 220845Z 03007KT 05/04 A3012 RMK A01 T00450038  RH  097%=      5-min Rain = 0
KPAD 220850Z 03008KT 05/04 A3011 RMK A01 T00450039  RH  098%=      5-min Rain = 0.01
KPAD 220855Z 01006KT 05/04 A3012 RMK A01 T00450038  RH  098%=      5-min Rain = 0
KPAD 220900Z 02007KT 05/04 A3011 RMK A01 T00450038  RH  098%=      5-min Rain = 0
KPAD 220905Z 03010KT 04/04 A301 RMK A01 T00440037  RH  098%=      5-min Rain = 0
KPAD 220910Z 03010KT 04/03 A301 RMK A01 T00410034  RH  097%=      5-min Rain = 0
KPAD 220915Z 03010KT 04/03 A3009 RMK A01 T00390032  RH  097%=      5-min Rain = 0
KPAD 220920Z 02010KT 04/03 A301 RMK A01 T00390032  RH  098%=      5-min Rain = 0
KPAD 220925Z 03010KT 04/03 A3009 RMK A01 T00390033  RH  098%=      5-min Rain = 0
KPAD 220930Z 04011KT 04/03 A3008 RMK A01 T00390032  RH  097%=      5-min Rain = 0
KPAD 220935Z 06012KT 04/03 A3008 RMK A01 T00370031  RH  097%=      5-min Rain = 0
KPAD 220940Z 06011KT 04/03 A3008 RMK A01 T00360030  RH  097%=      5-min Rain = 0
KPAD 220945Z 04009KT 04/03 A301 RMK A01 T00360030  RH  097%=      5-min Rain = 0
KPAD 220950Z 02008KT 04/03 A3012 RMK A01 T00360030  RH  097%=      5-min Rain = 0
KPAD 220955Z 02008KT 04/03 A3012 RMK A01 T00360030  RH  097%=      5-min Rain = 0
KPAD 221000Z 01008KT 04/03 A3012 RMK A01 T00370031  RH  097%=      5-min Rain = 0
KPAD 221005Z 36009KT 04/03 A3013 RMK A01 T00380032  RH  097%=      5-min Rain = 0
KPAD 221010Z 36010KT 04/03 A3012 RMK A01 T00380032  RH  097%=      5-min Rain = 0
KPAD 221015Z 35011KT 04/03 A3013 RMK A01 T00380032  RH  097%=      5-min Rain = 0
KPAD 221020Z 35012KT 04/03 A3014 RMK A01 T00380032  RH  097%=      5-min Rain = 0
KPAD 221025Z 35012KT 04/03 A3014 RMK A01 T00390032  RH  097%=      5-min Rain = 0
KPAD 221030Z 36013KT 04/03 A3014 RMK A01 T00380032  RH  097%=      5-min Rain = 0
KPAD 221035Z 36012KT 04/03 A3015 RMK A01 T00380032  RH  097%=      5-min Rain = 0
KPAD 221040Z 00010KT 04/03 A3015 RMK A01 T00380032  RH  097%=      5-min Rain = 0
KPAD 221045Z 35013G21KT 04/03 A3015 RMK A01 T00380032  RH  097%=      5-min Rain = 0
KPAD 221050Z 35016KT 04/03 A3015 RMK A01 T00370031  RH  097%=      5-min Rain = 0
KPAD 221055Z 35013G18KT 04/03 A3015 RMK A01 T00360029  RH  097%=      5-min Rain = 0
KPAD 221100Z 36011KT 04/03 A3015 RMK A01 T00360029  RH  097%=      5-min Rain = 0
KPAD 221105Z 00012KT 04/03 A3015 RMK A01 T00350028  RH  097%=      5-min Rain = 0
KPAD 221110Z 00010KT 04/03 A3015 RMK A01 T00350028  RH  097%=      5-min Rain = 0
KPAD 221115Z 36011KT 04/03 A3015 RMK A01 T00350028  RH  097%=      5-min Rain = 0
KPAD 221120Z 36012G17KT 03/03 A3014 RMK A01 T00340027  RH  097%=      5-min Rain = 0
KPAD 221125Z 36012KT 03/03 A3014 RMK A01 T00330026  RH  097%=      5-min Rain = 0
KPAD 221130Z 36011KT 03/03 A3015 RMK A01 T00330026  RH  097%=      5-min Rain = 0
KPAD 221135Z 36011KT 03/03 A3015 RMK A01 T00330025  RH  097%=      5-min Rain = 0
KPAD 221140Z 00010KT 03/03 A3015 RMK A01 T00330026  RH  097%=      5-min Rain = 0
KPAD 221145Z 36011KT 03/03 A3015 RMK A01 T00330026  RH  097%=      5-min Rain = 0
KPAD 221150Z 35011KT 03/03 A3015 RMK A01 T00330026  RH  097%=      5-min Rain = 0
KPAD 221155Z 35010KT 03/03 A3015 RMK A01 T00330026  RH  097%=      5-min Rain = 0
KPAD 221200Z 36010KT 03/03 A3015 RMK A01 T00330025  RH  096%=      5-min Rain = 0
KPAD 221205Z 00010KT 03/03 A3015 RMK A01 T00320025  RH  096%=      5-min Rain = 0
KPAD 221210Z 00010KT 03/03 A3015 RMK A01 T00320025  RH  096%=      5-min Rain = 0
KPAD 221215Z 00010KT 03/03 A3015 RMK A01 T00320025  RH  096%=      5-min Rain = 0
KPAD 221220Z 01010KT 03/02 A3015 RMK A01 T00320024  RH  096%=      5-min Rain = 0
KPAD 221225Z 00011G17KT 03/02 A3015 RMK A01 T00320024  RH  096%=      5-min Rain = 0
KPAD 221230Z 00010KT 03/02 A3015 RMK A01 T00320024  RH  096%=      5-min Rain = 0
KPAD 221235Z 01009G14KT 03/02 A3015 RMK A01 T00320024  RH  096%=      5-min Rain = 0
KPAD 221240Z 00011G16KT 03/02 A3016 RMK A01 T00310024  RH  096%=      5-min Rain = 0
KPAD 221245Z 35011G16KT 03/02 A3016 RMK A01 T00300022  RH  096%=      5-min Rain = 0
KPAD 221250Z 35010KT 03/02 A3017 RMK A01 T00290021  RH  096%=      5-min Rain = 0
KPAD 221255Z 35011KT 03/02 A3017 RMK A01 T00290020  RH  096%=      5-min Rain = 0
KPAD 221300Z 36009KT 03/02 A3017 RMK A01 T00280020  RH  096%=      5-min Rain = 0
KPAD 221305Z 00008KT 03/02 A3017 RMK A01 T00280019  RH  096%=      5-min Rain = 0
KPAD 221310Z 01008KT 03/02 A3017 RMK A01 T00270019  RH  096%=      5-min Rain = 0
KPAD 221315Z 00007KT 03/02 A3018 RMK A01 T00270018  RH  096%=      5-min Rain = 0
KPAD 221320Z 00007KT 03/02 A3018 RMK A01 T00270018  RH  095%=      5-min Rain = 0
KPAD 221325Z 00007KT 03/02 A3018 RMK A01 T00270018  RH  095%=      5-min Rain = 0
KPAD 221330Z 36006KT 03/02 A3018 RMK A01 T00260018  RH  095%=      5-min Rain = 0
KPAD 221335Z 35007KT 03/02 A3018 RMK A01 T00270018  RH  096%=      5-min Rain = 0
KPAD 221340Z 36007KT 03/02 A3018 RMK A01 T00270018  RH  095%=      5-min Rain = 0
KPAD 221345Z 35007KT 03/02 A3018 RMK A01 T00270019  RH  096%=      5-min Rain = 0
KPAD 221350Z 35007KT 03/02 A3018 RMK A01 T00280019  RH  096%=      5-min Rain = 0
KPAD 221355Z 35007KT 03/02 A3018 RMK A01 T00280019  RH  095%=      5-min Rain = 0
KPAD 221400Z 36007KT 03/02 A3018 RMK A01 T00280020  RH  096%=      5-min Rain = 0
KPAD 221405Z 36007KT 03/02 A3018 RMK A01 T00290020  RH  096%=      5-min Rain = 0
KPAD 221410Z 00006KT 03/02 A3018 RMK A01 T00290020  RH  096%=      5-min Rain = 0
KPAD 221415Z 00007KT 03/02 A3018 RMK A01 T00290020  RH  095%=      5-min Rain = 0
KPAD 221420Z 00008KT 03/02 A3018 RMK A01 T00290020  RH  095%=      5-min Rain = 0
KPAD 221425Z 36008KT 03/02 A3018 RMK A01 T00280019  RH  095%=      5-min Rain = 0
KPAD 221430Z 35008KT 03/02 A3019 RMK A01 T00300021  RH  095%=      5-min Rain = 0
KPAD 221435Z 36008KT 03/02 A3019 RMK A01 T00300021  RH  095%=      5-min Rain = 0
KPAD 221440Z 36009KT 03/02 A3019 RMK A01 T00300020  RH  095%=      5-min Rain = 0
KPAD 221445Z 01008KT 03/02 A3019 RMK A01 T00300020  RH  095%=      5-min Rain = 0
KPAD 221450Z 01008KT 03/02 A3019 RMK A01 T00300020  RH  094%=      5-min Rain = 0
KPAD 221455Z 00008KT 03/02 A3019 RMK A01 T00300019  RH  094%=      5-min Rain = 0
KPAD 221500Z 00008KT 03/02 A3019 RMK A01 T00300019  RH  094%=      5-min Rain = 0
KPAD 221505Z 36007KT 03/02 A3019 RMK A01 T00310020  RH  094%=      5-min Rain = 0
KPAD 221510Z 00007KT 03/02 A3019 RMK A01 T00320020  RH  094%=      5-min Rain = 0
KPAD 221515Z 36007KT 03/02 A3019 RMK A01 T00320020  RH  093%=      5-min Rain = 0
KPAD 221520Z 36007KT 03/02 A3019 RMK A01 T00320020  RH  093%=      5-min Rain = 0
KPAD 221525Z 00007KT 03/02 A3019 RMK A01 T00330021  RH  093%=      5-min Rain = 0
KPAD 221530Z 35006KT 03/02 A302 RMK A01 T00340022  RH  093%=      5-min Rain = 0
KPAD 221535Z 35007KT 03/02 A302 RMK A01 T00340022  RH  093%=      5-min Rain = 0
KPAD 221540Z 35008KT 03/02 A302 RMK A01 T00340022  RH  093%=      5-min Rain = 0
KPAD 221545Z 34008KT 04/02 A302 RMK A01 T00350022  RH  093%=      5-min Rain = 0
KPAD 221550Z 35008KT 04/02 A302 RMK A01 T00360023  RH  093%=      5-min Rain = 0
KPAD 221555Z 34008KT 04/02 A302 RMK A01 T00350022  RH  092%=      5-min Rain = 0
KPAD 221600Z 34009KT 04/02 A302 RMK A01 T00370023  RH  092%=      5-min Rain = 0
KPAD 221605Z 34008KT 04/03 A302 RMK A01 T00390025  RH  092%=      5-min Rain = 0
KPAD 221610Z 35009KT 04/02 A302 RMK A01 T00400023  RH  090%=      5-min Rain = 0
KPAD 221615Z 35008KT 04/02 A302 RMK A01 T00420023  RH  089%=      5-min Rain = 0
KPAD 221620Z 34007KT 05/03 A302 RMK A01 T00470026  RH  088%=      5-min Rain = 0
KPAD 221625Z 33008KT 05/03 A302 RMK A01 T00500025  RH  085%=      5-min Rain = 0
KPAD 221630Z 34009KT 05/03 A3019 RMK A01 T00530026  RH  084%=      5-min Rain = 0
KPAD 221635Z 34009G14KT 06/03 A3019 RMK A01 T00550025  RH  082%=      5-min Rain = 0
KPAD 221640Z 33010KT 06/02 A3019 RMK A01 T00560023  RH  081%=      5-min Rain = 0
KPAD 221645Z 34010KT 06/02 A3019 RMK A01 T00580023  RH  080%=      5-min Rain = 0
KPAD 221650Z 33010KT 06/02 A3019 RMK A01 T00580022  RH  079%=      5-min Rain = 0
KPAD 221655Z 32010KT 06/02 A3019 RMK A01 T00580021  RH  078%=      5-min Rain = 0
KPAD 221700Z 32009KT 06/02 A3019 RMK A01 T00590018  RH  076%=      5-min Rain = 0
KPAD 221705Z 32010KT 06/02 A3019 RMK A01 T00580019  RH  077%=      5-min Rain = 0
KPAD 221710Z 32009KT 06/02 A3019 RMK A01 T00590020  RH  077%=      5-min Rain = 0
KPAD 221715Z 31010KT 06/02 A3019 RMK A01 T00580019  RH  077%=      5-min Rain = 0
KPAD 221720Z 31009KT 06/02 A3018 RMK A01 T00580019  RH  077%=      5-min Rain = 0
KPAD 221725Z 33010KT 06/02 A3018 RMK A01 T00580018  RH  077%=      5-min Rain = 0
KPAD 221730Z 32011G16KT 06/02 A3018 RMK A01 T00610018  RH  075%=      5-min Rain = 0
KPAD 221735Z 32009G14KT 06/02 A3018 RMK A01 T00610017  RH  075%=      5-min Rain = 0
KPAD 221740Z 34009KT 06/02 A3018 RMK A01 T00640021  RH  075%=      5-min Rain = 0
KPAD 221745Z 34010KT 06/02 A3018 RMK A01 T00640017  RH  073%=      5-min Rain = 0
KPAD 221750Z 32010KT 06/02 A3017 RMK A01 T00640018  RH  074%=      5-min Rain = 0
KPAD 221755Z 32010KT 06/02 A3017 RMK A01 T00630017  RH  074%=      5-min Rain = 0
KPAD 221800Z 34009KT 06/02 A3017 RMK A01 T00630018  RH  074%=      5-min Rain = 0
KPAD 221805Z 34008KT 06/02 A3017 RMK A01 T00640018  RH  073%=      5-min Rain = 0
KPAD 221810Z 34009KT 07/02 A3016 RMK A01 T00670019  RH  073%=      5-min Rain = 0
KPAD 221815Z 34008KT 07/02 A3016 RMK A01 T00680018  RH  071%=      5-min Rain = 0
KPAD 221820Z 35010KT 07/02 A3016 RMK A01 T00690019  RH  072%=      5-min Rain = 0
KPAD 221825Z 35010KT 07/02 A3015 RMK A01 T00680019  RH  072%=      5-min Rain = 0
KPAD 221830Z 34011KT 07/02 A3015 RMK A01 T00690018  RH  071%=      5-min Rain = 0
KPAD 221835Z 33010KT 07/02 A3014 RMK A01 T00680016  RH  070%=      5-min Rain = 0
KPAD 221840Z 34010KT 07/02 A3014 RMK A01 T00680016  RH  070%=      5-min Rain = 0
KPAD 221845Z 34009KT 07/02 A3014 RMK A01 T00700018  RH  070%=      5-min Rain = 0
KPAD 221850Z 32010G17KT 07/02 A3014 RMK A01 T00720018  RH  070%=      5-min Rain = 0
KPAD 221855Z 34007G12KT 07/02 A3013 RMK A01 T00720019  RH  070%=      5-min Rain = 0
KPAD 221900Z 32009KT 07/02 A3013 RMK A01 T00710016  RH  069%=      5-min Rain = 0
KPAD 221905Z 34007KT 07/02 A3013 RMK A01 T00700016  RH  069%=      5-min Rain = 0
KPAD 221910Z 34009KT 07/02 A3013 RMK A01 T00730018  RH  069%=      5-min Rain = 0
KPAD 221915Z 33008KT 07/02 A3013 RMK A01 T00720017  RH  069%=      5-min Rain = 0
KPAD 221920Z 35007KT 07/02 A3012 RMK A01 T00720017  RH  069%=      5-min Rain = 0
KPAD 221925Z 35007KT 08/02 A3012 RMK A01 T00750020  RH  069%=      5-min Rain = 0
KPAD 221930Z 34007KT 08/02 A3012 RMK A01 T00760020  RH  069%=      5-min Rain = 0
KPAD 221935Z 34008KT 07/02 A3012 RMK A01 T00740018  RH  069%=      5-min Rain = 0
KPAD 221940Z 32008G15KT 07/02 A3012 RMK A01 T00740017  RH  068%=      5-min Rain = 0
KPAD 221945Z 32009KT 07/02 A3012 RMK A01 T00740016  RH  068%=      5-min Rain = 0
KPAD 221950Z 33008G15KT 08/02 A3012 RMK A01 T00750016  RH  067%=      5-min Rain = 0
KPAD 221955Z 33008KT 07/01 A3011 RMK A01 T00740014  RH  067%=      5-min Rain = 0
KPAD 222000Z 34008KT 08/02 A3011 RMK A01 T00750016  RH  067%=      5-min Rain = 0
KPAD 222005Z 00007KT 08/02 A3011 RMK A01 T00750016  RH  067%=      5-min Rain = 0
KPAD 222010Z 00005KT 08/02 A3011 RMK A01 T00760019  RH  068%=      5-min Rain = 0
KPAD 222015Z 33006KT 08/02 A3011 RMK A01 T00760015  RH  066%=      5-min Rain = 0
KPAD 222020Z 34006KT 08/02 A301 RMK A01 T00750015  RH  067%=      5-min Rain = 0
KPAD 222025Z 34006KT 07/01 A301 RMK A01 T00740014  RH  067%=      5-min Rain = 0
KPAD 222030Z 36006KT 07/01 A301 RMK A01 T00740014  RH  067%=      5-min Rain = 0
KPAD 222035Z 01004G9KT 08/01 A301 RMK A01 T00750014  RH  066%=      5-min Rain = 0
KPAD 222040Z 35005KT 08/01 A301 RMK A01 T00750014  RH  066%=      5-min Rain = 0
KPAD 222045Z 32005KT 08/01 A301 RMK A01 T00760014  RH  066%=      5-min Rain = 0
KPAD 222050Z 33005KT 08/01 A3009 RMK A01 T00750014  RH  066%=      5-min Rain = 0
KPAD 222055Z 35006KT 08/02 A3009 RMK A01 T00770016  RH  066%=      5-min Rain = 0
KPAD 222100Z 35005KT 08/02 A301 RMK A01 T00770015  RH  066%=      5-min Rain = 0
KPAD 222105Z 36005KT 08/02 A301 RMK A01 T00770015  RH  066%=      5-min Rain = 0
KPAD 222110Z 01002KT 08/01 A301 RMK A01 T00750013  RH  065%=      5-min Rain = 0
KPAD 222115Z 02004KT 07/01 A301 RMK A01 T00740014  RH  066%=      5-min Rain = 0
KPAD 222120Z 01005KT 07/02 A3009 RMK A01 T00740015  RH  067%=      5-min Rain = 0
KPAD 222125Z 00005KT 08/02 A3009 RMK A01 T00750015  RH  067%=      5-min Rain = 0
KPAD 222130Z 02005KT 07/02 A3009 RMK A01 T00740015  RH  067%=      5-min Rain = 0
KPAD 222135Z 02005KT 07/02 A3009 RMK A01 T00740015  RH  067%=      5-min Rain = 0
KPAD 222140Z 01004KT 07/02 A3009 RMK A01 T00740016  RH  067%=      5-min Rain = 0
KPAD 222145Z 01004KT 08/02 A3009 RMK A01 T00750016  RH  067%=      5-min Rain = 0
KPAD 222150Z 03005KT 07/01 A3009 RMK A01 T00740014  RH  067%=      5-min Rain = 0
KPAD 222155Z 03004KT 07/02 A3009 RMK A01 T00720015  RH  068%=      5-min Rain = 0
KPAD 222200Z 03004KT 07/02 A3009 RMK A01 T00730015  RH  068%=      5-min Rain = 0
KPAD 222205Z 03003KT 07/02 A3009 RMK A01 T00730015  RH  068%=      5-min Rain = 0
KPAD 222210Z 02004KT 07/02 A3008 RMK A01 T00720015  RH  068%=      5-min Rain = 0
KPAD 222215Z 03005KT 07/02 A3008 RMK A01 T00720016  RH  069%=      5-min Rain = 0
KPAD 222220Z 05005KT 07/02 A3008 RMK A01 T00700015  RH  069%=      5-min Rain = 0
KPAD 222225Z 04005KT 07/02 A3008 RMK A01 T00690015  RH  069%=      5-min Rain = 0
KPAD 222230Z 04005KT 07/02 A3008 RMK A01 T00690015  RH  069%=      5-min Rain = 0
KPAD 222235Z 06004KT 07/02 A3008 RMK A01 T00690015  RH  069%=      5-min Rain = 0
KPAD 222240Z 07004KT 07/02 A3008 RMK A01 T00690015  RH  070%=      5-min Rain = 0
KPAD 222245Z 06004KT 07/02 A3008 RMK A01 T00690015  RH  070%=      5-min Rain = 0
KPAD 222250Z 04004KT 07/02 A3008 RMK A01 T00680015  RH  070%=      5-min Rain = 0
KPAD 222255Z 03005KT 07/02 A3008 RMK A01 T00680015  RH  070%=      5-min Rain = 0
KPAD 222300Z 03004KT 07/02 A3008 RMK A01 T00670015  RH  070%=      5-min Rain = 0
KPAD 222305Z 02003KT 07/01 A3008 RMK A01 T00670014  RH  070%=      5-min Rain = 0
KPAD 222310Z 04004KT 07/01 A3008 RMK A01 T00670014  RH  070%=      5-min Rain = 0
KPAD 222315Z 04004KT 07/02 A3008 RMK A01 T00660015  RH  071%=      5-min Rain = 0
KPAD 222320Z 05004KT 07/02 A3008 RMK A01 T00660016  RH  071%=      5-min Rain = 0
KPAD 222325Z 05004KT 07/02 A3008 RMK A01 T00650016  RH  072%=      5-min Rain = 0
KPAD 222330Z 06004KT 07/02 A3008 RMK A01 T00650015  RH  072%=      5-min Rain = 0
KPAD 222335Z 07004KT 06/02 A3008 RMK A01 T00640015  RH  072%=      5-min Rain = 0
KPAD 222340Z 08004KT 06/02 A3007 RMK A01 T00640016  RH  073%=      5-min Rain = 0
KPAD 222345Z 07004KT 06/02 A3007 RMK A01 T00630017  RH  074%=      5-min Rain = 0
KPAD 222350Z 07004KT 06/02 A3007 RMK A01 T00620018  RH  074%=      5-min Rain = 0
KPAD 222355Z 09004KT 06/02 A3007 RMK A01 T00620018  RH  075%=      5-min Rain = 0
KPAD 230000Z 07004KT 06/02 A3007 RMK A01 T00610018  RH  075%=      5-min Rain = 0
KPAD 230005Z 07005KT 06/02 A3007 RMK A01 T00610019  RH  076%=      5-min Rain = 0
KPAD 230010Z 06006KT 06/02 A3007 RMK A01 T00610019  RH  076%=      5-min Rain = 0
KPAD 230015Z 07005KT 06/02 A3008 RMK A01 T00600019  RH  076%=      5-min Rain = 0
KPAD 230020Z 09005KT 06/02 A3007 RMK A01 T00590018  RH  076%=      5-min Rain = 0
KPAD 230025Z 08007KT 06/02 A3008 RMK A01 T00570017  RH  076%=      5-min Rain = 0
KPAD 230030Z 09006KT 06/02 A3008 RMK A01 T00560016  RH  077%=      5-min Rain = 0
KPAD 230035Z 09005KT 05/01 A3007 RMK A01 T00520014  RH  077%=      5-min Rain = 0
KPAD 230040Z 09005KT 05/01 A3007 RMK A01 T00480012  RH  079%=      5-min Rain = 0
KPAD 230045Z 10005KT 05/01 A3007 RMK A01 T00450012  RH  080%=      5-min Rain = 0
KPAD 230050Z 10005KT 04/01 A3008 RMK A01 T00430011  RH  081%=      5-min Rain = 0
KPAD 230055Z 11005KT 04/01 A3008 RMK A01 T00410011  RH  082%=      5-min Rain = 0
KPAD 230100Z 11004KT 04/01 A3008 RMK A01 T00400013  RH  083%=      5-min Rain = 0
KPAD 230105Z 10004KT 04/02 A3008 RMK A01 T00410015  RH  084%=      5-min Rain = 0
KPAD 230110Z 08004KT 04/01 A3009 RMK A01 T00400014  RH  084%=      5-min Rain = 0
KPAD 230115Z 07005KT 04/02 A3009 RMK A01 T00390015  RH  086%=      5-min Rain = 0
KPAD 230120Z 07005KT 04/02 A3009 RMK A01 T00410019  RH  087%=      5-min Rain = 0
KPAD 230125Z 08005KT 04/02 A3008 RMK A01 T00440021  RH  086%=      5-min Rain = 0
KPAD 230130Z 08005KT 05/02 A3008 RMK A01 T00460022  RH  086%=      5-min Rain = 0
KPAD 230135Z 09004KT 05/02 A3009 RMK A01 T00470022  RH  085%=      5-min Rain = 0
KPAD 230140Z 09004KT 05/02 A3009 RMK A01 T00480022  RH  085%=      5-min Rain = 0
KPAD 230145Z 10004KT 05/02 A3009 RMK A01 T00480022  RH  084%=      5-min Rain = 0
KPAD 230150Z 10005KT 05/02 A3009 RMK A01 T00490022  RH  084%=      5-min Rain = 0
KPAD 230155Z 10006KT 05/02 A3009 RMK A01 T00480020  RH  083%=      5-min Rain = 0
KPAD 230200Z 10005KT 05/02 A3009 RMK A01 T00470019  RH  083%=      5-min Rain = 0
KPAD 230205Z 11007KT 05/02 A3009 RMK A01 T00470019  RH  083%=      5-min Rain = 0
KPAD 230210Z 11007KT 05/02 A3009 RMK A01 T00460018  RH  084%=      5-min Rain = 0
KPAD 230215Z 12007KT 05/02 A3009 RMK A01 T00450018  RH  084%=      5-min Rain = 0
KPAD 230220Z 12008KT 04/02 A3009 RMK A01 T00440018  RH  084%=      5-min Rain = 0
KPAD 230225Z 13008KT 04/02 A3008 RMK A01 T00430017  RH  085%=      5-min Rain = 0
KPAD 230230Z 13007KT 04/02 A3008 RMK A01 T00400015  RH  085%=      5-min Rain = 0
KPAD 230235Z 12006KT 04/02 A3009 RMK A01 T00370015  RH  086%=      5-min Rain = 0
KPAD 230240Z 12006KT 04/01 A3009 RMK A01 T00350014  RH  087%=      5-min Rain = 0
KPAD 230245Z 12006KT 03/01 A3009 RMK A01 T00330013  RH  088%=      5-min Rain = 0
KPAD 230250Z 12005KT 03/01 A3009 RMK A01 T00310013  RH  089%=      5-min Rain = 0
KPAD 230255Z 12006KT 03/01 A3009 RMK A01 T00300013  RH  089%=      5-min Rain = 0
KPAD 230300Z 12005KT 03/01 A301 RMK A01 T00300013  RH  090%=      5-min Rain = 0
KPAD 230305Z 13005KT 03/01 A301 RMK A01 T00290012  RH  090%=      5-min Rain = 0
KPAD 230310Z 13006KT 03/01 A301 RMK A01 T00280012  RH  090%=      5-min Rain = 0
KPAD 230315Z 13006KT 03/01 A301 RMK A01 T00270011  RH  091%=      5-min Rain = 0
KPAD 230320Z 13005KT 03/01 A301 RMK A01 T00270012  RH  091%=      5-min Rain = 0
KPAD 230325Z 13005KT 03/01 A301 RMK A01 T00260011  RH  091%=      5-min Rain = 0
KPAD 230330Z 13005KT 03/01 A301 RMK A01 T00250010  RH  091%=      5-min Rain = 0
KPAD 230335Z 14004KT 02/01 A301 RMK A01 T00240010  RH  092%=      5-min Rain = 0
KPAD 230340Z 14004KT 02/01 A301 RMK A01 T00240010  RH  092%=      5-min Rain = 0
KPAD 230345Z 15004KT 02/01 A301 RMK A01 T00240010  RH  092%=      5-min Rain = 0
KPAD 230350Z 15004KT 02/01 A301 RMK A01 T00220009  RH  092%=      5-min Rain = 0
KPAD 230355Z 14004KT 02/01 A301 RMK A01 T00210008  RH  092%=      5-min Rain = 0
KPAD 230400Z 12003KT 02/01 A301 RMK A01 T00200008  RH  093%=      5-min Rain = 0
KPAD 230405Z 15004KT 02/01 A301 RMK A01 T00200008  RH  093%=      5-min Rain = 0
KPAD 230410Z 14004KT 02/01 A301 RMK A01 T00190007  RH  093%=      5-min Rain = 0
KPAD 230415Z 14003KT 02/01 A301 RMK A01 T00190008  RH  093%=      5-min Rain = 0
KPAD 230420Z 13003KT 02/01 A301 RMK A01 T00180007  RH  093%=      5-min Rain = 0
KPAD 230425Z 14004KT 02/01 A301 RMK A01 T00180007  RH  094%=      5-min Rain = 0
KPAD 230430Z 14003KT 02/01 A301 RMK A01 T00160005  RH  094%=      5-min Rain = 0
KPAD 230435Z 15002KT 02/01 A301 RMK A01 T00160006  RH  094%=      5-min Rain = 0
KPAD 230440Z 16000KT 02/01 A301 RMK A01 T00160006  RH  094%=      5-min Rain = 0
KPAD 230445Z 16003KT 02/01 A3009 RMK A01 T00160006  RH  094%=      5-min Rain = 0
KPAD 230450Z 17003KT 01/00 A3009 RMK A01 T00130002  RH  094%=      5-min Rain = 0
KPAD 230455Z 18003KT 01/00 A301 RMK A01 T00110002  RH  095%=      5-min Rain = 0
KPAD 230500Z 18004KT 01/M00 A301 RMK A01 T00081002  RH  094%=      5-min Rain = 0
KPAD 230505Z 17003KT 01/M00 A301 RMK A01 T00071001  RH  095%=      5-min Rain = 0
KPAD 230510Z 18004KT 01/00 A301 RMK A01 T00100002  RH  096%=      5-min Rain = 0
KPAD 230515Z 18003KT 01/00 A301 RMK A01 T00090001  RH  095%=      5-min Rain = 0
KPAD 230520Z 19003KT 01/00 A301 RMK A01 T00090001  RH  095%=      5-min Rain = 0
KPAD 230525Z 20004KT 01/00 A301 RMK A01 T00090001  RH  095%=      5-min Rain = 0
KPAD 230530Z 19004KT 01/00 A301 RMK A01 T00090001  RH  096%=      5-min Rain = 0
KPAD 230535Z 20004KT 01/00 A301 RMK A01 T00090002  RH  096%=      5-min Rain = 0
KPAD 230540Z 20006KT 01/M00 A301 RMK A01 T00071001  RH  096%=      5-min Rain = 0
KPAD 230545Z 20006KT 01/M00 A301 RMK A01 T00051002  RH  096%=      5-min Rain = 0
KPAD 230550Z 21006KT 01/M00 A3011 RMK A01 T00061002  RH  096%=      5-min Rain = 0
KPAD 230555Z 21004KT 01/M00 A3011 RMK A01 T00061001  RH  096%=      5-min Rain = 0

Page generated in 0.0153 seconds.